Pagrindinis puslapis
METAR-TAF:

METAR-TAF

Oro uostai :

Kunmingas, Kinija

platuma: 25-01N, ilguma: 102-41E, Aukštis: 1892 m

Dabartinis oras

Ataskaita buvo paskelbta 45 minutes, ne 12:00 UTC
Vėjas 14 kt iš Pietvakarių
Temperatūra 11°C
Drėgmė 54%
Slėgis 1025 hPa
Matomumas 10 km arba daugiau
nėra debesų žemiau 1500 m ir nėra kamuolinių lietaus debesų

METAR: ZPPP 131200Z 22007MPS CAVOK 11/02 Q1025 NOSIG

Laikas: 20:45 (12:45 UTC)

Prognozė

Ataskaita buvo paskelbta 5 valandos ir 39 minutes, ne 07:06 UTC
Prognozė galioja nuo 13 metu 12 UTC su 14 metu 12 UTC
Vėjas 12 kt iš Pietvakarių
Matomumas 10 km arba daugiau
nėra debesų žemiau 1500 m ir nėra kamuolinių lietaus debesų

TAF: ZPPP 130706Z 1312/1412 22006MPS CAVOK TX18/1408Z TN02/1323Z

Orai ataskaitas ir orų prognozės (METAR, TAF).

turimą stotys yra geltonos ir raudonos taškus žemėlapyje.

Perkelti pele per norėdami pamatyti stoties vardą.

Tada spustelėkite, norėdami matyti oro stebėjimo ir prognozės.

Norėdami pakeisti žemėlapį: spustelėkite ant žalios mygtukų su juodo kryžiaus žemyn,; žalią mygtuką su brūkšneliu, jei norite nutolinti; arba žalių rodyklių gretimoms žemėlapius.


METAR-TAF: